sensor_id;sensor_type;location;lat;lon;timestamp;temperature;humidity
7030;DHT22;3556;53.500;10.176;2022-07-17T00:00:39;12.10;99.90
7030;DHT22;3556;53.500;10.176;2022-07-17T00:03:08;12.00;99.90
7030;DHT22;3556;53.500;10.176;2022-07-17T00:05:34;12.00;99.90
7030;DHT22;3556;53.500;10.176;2022-07-17T00:08:00;11.90;99.90
7030;DHT22;3556;53.500;10.176;2022-07-17T00:10:26;11.90;99.90
7030;DHT22;3556;53.500;10.176;2022-07-17T00:12:51;11.80;99.90
7030;DHT22;3556;53.500;10.176;2022-07-17T00:15:18;11.80;99.90
7030;DHT22;3556;53.500;10.176;2022-07-17T00:17:44;11.80;99.90
7030;DHT22;3556;53.500;10.176;2022-07-17T00:20:10;11.70;99.90
7030;DHT22;3556;53.500;10.176;2022-07-17T00:22:36;11.70;99.90
7030;DHT22;3556;53.500;10.176;2022-07-17T00:25:02;11.60;99.90
7030;DHT22;3556;53.500;10.176;2022-07-17T00:27:28;11.60;99.90
7030;DHT22;3556;53.500;10.176;2022-07-17T00:29:53;11.50;99.90
7030;DHT22;3556;53.500;10.176;2022-07-17T00:32:19;11.50;99.90
7030;DHT22;3556;53.500;10.176;2022-07-17T00:34:45;11.50;99.90
7030;DHT22;3556;53.500;10.176;2022-07-17T00:37:10;11.40;99.90
7030;DHT22;3556;53.500;10.176;2022-07-17T00:39:36;11.40;99.90
7030;DHT22;3556;53.500;10.176;2022-07-17T00:42:02;11.30;99.90
7030;DHT22;3556;53.500;10.176;2022-07-17T00:44:27;11.30;99.90
7030;DHT22;3556;53.500;10.176;2022-07-17T00:46:53;11.30;99.90
7030;DHT22;3556;53.500;10.176;2022-07-17T00:49:19;11.20;99.90
7030;DHT22;3556;53.500;10.176;2022-07-17T00:51:44;11.20;99.90
7030;DHT22;3556;53.500;10.176;2022-07-17T00:54:11;11.10;99.90
7030;DHT22;3556;53.500;10.176;2022-07-17T00:56:40;11.10;99.90
7030;DHT22;3556;53.500;10.176;2022-07-17T00:59:07;11.10;99.90
7030;DHT22;3556;53.500;10.176;2022-07-17T01:01:34;11.00;99.90
7030;DHT22;3556;53.500;10.176;2022-07-17T01:04:00;11.00;99.90
7030;DHT22;3556;53.500;10.176;2022-07-17T01:06:26;10.90;99.90
7030;DHT22;3556;53.500;10.176;2022-07-17T01:08:51;10.90;99.90
7030;DHT22;3556;53.500;10.176;2022-07-17T01:11:17;10.90;99.90
7030;DHT22;3556;53.500;10.176;2022-07-17T01:13:43;10.80;99.90
7030;DHT22;3556;53.500;10.176;2022-07-17T01:16:08;10.80;99.90
7030;DHT22;3556;53.500;10.176;2022-07-17T01:18:34;10.70;99.90
7030;DHT22;3556;53.500;10.176;2022-07-17T01:21:07;10.70;99.90
7030;DHT22;3556;53.500;10.176;2022-07-17T01:23:32;10.70;99.90
7030;DHT22;3556;53.500;10.176;2022-07-17T01:25:58;10.70;99.90
7030;DHT22;3556;53.500;10.176;2022-07-17T01:28:24;10.70;99.90
7030;DHT22;3556;53.500;10.176;2022-07-17T01:30:51;10.60;99.90
7030;DHT22;3556;53.500;10.176;2022-07-17T01:33:18;10.60;99.90
7030;DHT22;3556;53.500;10.176;2022-07-17T01:35:44;10.60;99.90
7030;DHT22;3556;53.500;10.176;2022-07-17T01:38:10;10.60;99.90
7030;DHT22;3556;53.500;10.176;2022-07-17T01:40:36;10.60;99.90
7030;DHT22;3556;53.500;10.176;2022-07-17T01:43:02;10.50;99.90
7030;DHT22;3556;53.500;10.176;2022-07-17T01:45:28;10.50;99.90
7030;DHT22;3556;53.500;10.176;2022-07-17T01:47:53;10.40;99.90
7030;DHT22;3556;53.500;10.176;2022-07-17T01:50:19;10.40;99.90
7030;DHT22;3556;53.500;10.176;2022-07-17T01:52:45;10.40;99.90
7030;DHT22;3556;53.500;10.176;2022-07-17T01:55:13;10.40;99.90
7030;DHT22;3556;53.500;10.176;2022-07-17T01:57:40;10.40;99.90
7030;DHT22;3556;53.500;10.176;2022-07-17T02:00:11;10.30;99.90
7030;DHT22;3556;53.500;10.176;2022-07-17T02:02:37;10.30;99.90
7030;DHT22;3556;53.500;10.176;2022-07-17T02:05:03;10.30;99.90
7030;DHT22;3556;53.500;10.176;2022-07-17T02:07:29;10.30;99.90
7030;DHT22;3556;53.500;10.176;2022-07-17T02:09:55;10.20;99.90
7030;DHT22;3556;53.500;10.176;2022-07-17T02:12:20;10.20;99.90
7030;DHT22;3556;53.500;10.176;2022-07-17T02:14:46;10.20;99.90
7030;DHT22;3556;53.500;10.176;2022-07-17T02:17:11;10.20;99.90
7030;DHT22;3556;53.500;10.176;2022-07-17T02:19:37;10.20;99.90
7030;DHT22;3556;53.500;10.176;2022-07-17T02:22:03;10.20;99.90
7030;DHT22;3556;53.500;10.176;2022-07-17T02:24:28;10.30;99.90
7030;DHT22;3556;53.500;10.176;2022-07-17T02:26:54;10.30;99.90
7030;DHT22;3556;53.500;10.176;2022-07-17T02:29:20;10.30;99.90
7030;DHT22;3556;53.500;10.176;2022-07-17T02:31:45;10.30;99.90
7030;DHT22;3556;53.500;10.176;2022-07-17T02:34:11;10.30;99.90
7030;DHT22;3556;53.500;10.176;2022-07-17T02:36:36;10.30;99.90
7030;DHT22;3556;53.500;10.176;2022-07-17T02:39:02;10.40;99.90
7030;DHT22;3556;53.500;10.176;2022-07-17T02:41:28;10.40;99.90
7030;DHT22;3556;53.500;10.176;2022-07-17T02:43:54;10.40;99.90
7030;DHT22;3556;53.500;10.176;2022-07-17T02:46:19;10.50;99.90
7030;DHT22;3556;53.500;10.176;2022-07-17T02:48:45;10.50;99.90
7030;DHT22;3556;53.500;10.176;2022-07-17T02:51:11;10.50;99.90
7030;DHT22;3556;53.500;10.176;2022-07-17T02:53:36;10.50;99.90
7030;DHT22;3556;53.500;10.176;2022-07-17T02:56:02;10.60;99.90
7030;DHT22;3556;53.500;10.176;2022-07-17T02:58:28;10.60;99.90
7030;DHT22;3556;53.500;10.176;2022-07-17T03:00:53;10.70;99.90
7030;DHT22;3556;53.500;10.176;2022-07-17T03:03:19;10.70;99.90
7030;DHT22;3556;53.500;10.176;2022-07-17T03:05:46;10.70;99.90
7030;DHT22;3556;53.500;10.176;2022-07-17T03:08:12;10.80;99.90
7030;DHT22;3556;53.500;10.176;2022-07-17T03:10:39;10.80;99.90
7030;DHT22;3556;53.500;10.176;2022-07-17T03:13:05;10.80;99.90
7030;DHT22;3556;53.500;10.176;2022-07-17T03:15:31;10.90;99.90
7030;DHT22;3556;53.500;10.176;2022-07-17T03:17:56;10.90;99.90
7030;DHT22;3556;53.500;10.176;2022-07-17T03:20:22;11.00;99.90
7030;DHT22;3556;53.500;10.176;2022-07-17T03:22:47;11.00;99.90
7030;DHT22;3556;53.500;10.176;2022-07-17T03:25:13;11.10;99.90
7030;DHT22;3556;53.500;10.176;2022-07-17T03:27:39;11.00;99.90
7030;DHT22;3556;53.500;10.176;2022-07-17T03:30:05;11.10;99.90
7030;DHT22;3556;53.500;10.176;2022-07-17T03:32:31;11.10;99.90
7030;DHT22;3556;53.500;10.176;2022-07-17T03:34:57;11.10;99.90
7030;DHT22;3556;53.500;10.176;2022-07-17T03:37:22;11.20;99.90
7030;DHT22;3556;53.500;10.176;2022-07-17T03:39:48;11.20;99.90
7030;DHT22;3556;53.500;10.176;2022-07-17T03:42:14;11.30;99.90
7030;DHT22;3556;53.500;10.176;2022-07-17T03:44:39;11.30;99.90
7030;DHT22;3556;53.500;10.176;2022-07-17T03:47:05;11.30;99.90
7030;DHT22;3556;53.500;10.176;2022-07-17T03:49:30;11.30;99.90
7030;DHT22;3556;53.500;10.176;2022-07-17T03:51:56;11.40;99.90
7030;DHT22;3556;53.500;10.176;2022-07-17T03:54:22;11.50;99.90
7030;DHT22;3556;53.500;10.176;2022-07-17T03:56:47;11.50;99.90
7030;DHT22;3556;53.500;10.176;2022-07-17T03:59:13;11.50;99.90
7030;DHT22;3556;53.500;10.176;2022-07-17T04:01:39;11.60;99.90
7030;DHT22;3556;53.500;10.176;2022-07-17T04:04:05;11.60;99.90
7030;DHT22;3556;53.500;10.176;2022-07-17T04:06:30;11.70;99.90
7030;DHT22;3556;53.500;10.176;2022-07-17T04:08:56;11.80;99.90
7030;DHT22;3556;53.500;10.176;2022-07-17T04:11:22;11.80;99.90
7030;DHT22;3556;53.500;10.176;2022-07-17T04:13:48;11.90;99.90
7030;DHT22;3556;53.500;10.176;2022-07-17T04:16:14;11.90;99.90
7030;DHT22;3556;53.500;10.176;2022-07-17T04:18:39;11.90;99.90
7030;DHT22;3556;53.500;10.176;2022-07-17T04:21:07;12.00;99.90
7030;DHT22;3556;53.500;10.176;2022-07-17T04:23:33;12.00;99.90
7030;DHT22;3556;53.500;10.176;2022-07-17T04:25:59;12.10;99.90
7030;DHT22;3556;53.500;10.176;2022-07-17T04:28:25;12.10;99.90
7030;DHT22;3556;53.500;10.176;2022-07-17T04:30:50;12.20;99.90
7030;DHT22;3556;53.500;10.176;2022-07-17T04:33:17;12.30;99.90
7030;DHT22;3556;53.500;10.176;2022-07-17T04:35:43;12.40;99.90
7030;DHT22;3556;53.500;10.176;2022-07-17T04:38:09;12.40;99.90
7030;DHT22;3556;53.500;10.176;2022-07-17T04:40:36;12.50;99.90
7030;DHT22;3556;53.500;10.176;2022-07-17T04:43:02;12.60;99.90
7030;DHT22;3556;53.500;10.176;2022-07-17T04:45:29;12.70;99.90
7030;DHT22;3556;53.500;10.176;2022-07-17T04:47:54;12.70;99.90
7030;DHT22;3556;53.500;10.176;2022-07-17T04:50:20;12.80;99.90
7030;DHT22;3556;53.500;10.176;2022-07-17T04:52:46;12.90;99.90
7030;DHT22;3556;53.500;10.176;2022-07-17T04:55:12;12.90;99.90
7030;DHT22;3556;53.500;10.176;2022-07-17T04:57:37;13.00;99.90
7030;DHT22;3556;53.500;10.176;2022-07-17T05:00:05;13.00;99.90
7030;DHT22;3556;53.500;10.176;2022-07-17T05:02:31;13.10;99.90
7030;DHT22;3556;53.500;10.176;2022-07-17T05:04:57;13.20;99.90
7030;DHT22;3556;53.500;10.176;2022-07-17T05:07:22;13.30;99.90
7030;DHT22;3556;53.500;10.176;2022-07-17T05:09:49;13.30;99.90
7030;DHT22;3556;53.500;10.176;2022-07-17T05:12:14;13.40;99.90
7030;DHT22;3556;53.500;10.176;2022-07-17T05:14:40;13.50;99.90
7030;DHT22;3556;53.500;10.176;2022-07-17T05:17:06;13.60;99.90
7030;DHT22;3556;53.500;10.176;2022-07-17T05:19:31;13.70;99.90
7030;DHT22;3556;53.500;10.176;2022-07-17T05:21:57;13.70;99.90
7030;DHT22;3556;53.500;10.176;2022-07-17T05:24:23;13.80;99.90
7030;DHT22;3556;53.500;10.176;2022-07-17T05:26:48;13.80;99.90
7030;DHT22;3556;53.500;10.176;2022-07-17T05:29:14;13.90;99.90
7030;DHT22;3556;53.500;10.176;2022-07-17T05:31:40;13.90;99.90
7030;DHT22;3556;53.500;10.176;2022-07-17T05:34:05;13.90;99.90
7030;DHT22;3556;53.500;10.176;2022-07-17T05:36:31;14.00;99.90
7030;DHT22;3556;53.500;10.176;2022-07-17T05:38:56;14.00;99.90
7030;DHT22;3556;53.500;10.176;2022-07-17T05:41:22;14.10;99.90
7030;DHT22;3556;53.500;10.176;2022-07-17T05:43:48;14.10;99.90
7030;DHT22;3556;53.500;10.176;2022-07-17T05:46:13;14.20;99.90
7030;DHT22;3556;53.500;10.176;2022-07-17T05:48:39;14.30;99.90
7030;DHT22;3556;53.500;10.176;2022-07-17T05:51:04;14.30;99.90
7030;DHT22;3556;53.500;10.176;2022-07-17T05:53:30;14.30;99.90
7030;DHT22;3556;53.500;10.176;2022-07-17T05:55:56;14.40;99.90
7030;DHT22;3556;53.500;10.176;2022-07-17T05:58:22;14.40;99.90
7030;DHT22;3556;53.500;10.176;2022-07-17T06:00:47;14.50;99.90
7030;DHT22;3556;53.500;10.176;2022-07-17T06:03:15;14.50;99.90
7030;DHT22;3556;53.500;10.176;2022-07-17T06:05:40;14.60;99.90
7030;DHT22;3556;53.500;10.176;2022-07-17T06:08:06;14.60;99.90
7030;DHT22;3556;53.500;10.176;2022-07-17T06:10:32;14.70;99.90
7030;DHT22;3556;53.500;10.176;2022-07-17T06:12:59;14.70;99.90
7030;DHT22;3556;53.500;10.176;2022-07-17T06:15:25;14.70;99.90
7030;DHT22;3556;53.500;10.176;2022-07-17T06:17:50;14.80;99.90
7030;DHT22;3556;53.500;10.176;2022-07-17T06:20:17;14.80;99.90
7030;DHT22;3556;53.500;10.176;2022-07-17T06:22:43;15.00;99.90
7030;DHT22;3556;53.500;10.176;2022-07-17T06:25:10;15.10;99.90
7030;DHT22;3556;53.500;10.176;2022-07-17T06:27:38;15.30;99.90
7030;DHT22;3556;53.500;10.176;2022-07-17T06:30:04;15.40;99.90
7030;DHT22;3556;53.500;10.176;2022-07-17T06:32:30;15.50;99.90
7030;DHT22;3556;53.500;10.176;2022-07-17T06:34:56;15.50;99.90
7030;DHT22;3556;53.500;10.176;2022-07-17T06:37:21;15.60;99.90
7030;DHT22;3556;53.500;10.176;2022-07-17T06:39:47;15.60;99.90
7030;DHT22;3556;53.500;10.176;2022-07-17T06:42:12;15.70;99.90
7030;DHT22;3556;53.500;10.176;2022-07-17T06:44:38;15.80;99.90
7030;DHT22;3556;53.500;10.176;2022-07-17T06:47:04;15.80;99.90
7030;DHT22;3556;53.500;10.176;2022-07-17T06:49:29;15.80;99.90
7030;DHT22;3556;53.500;10.176;2022-07-17T06:51:55;15.80;99.90
7030;DHT22;3556;53.500;10.176;2022-07-17T06:54:21;15.90;99.90
7030;DHT22;3556;53.500;10.176;2022-07-17T06:56:51;15.90;99.90
7030;DHT22;3556;53.500;10.176;2022-07-17T06:59:17;16.00;99.90
7030;DHT22;3556;53.500;10.176;2022-07-17T07:01:43;16.10;99.90
7030;DHT22;3556;53.500;10.176;2022-07-17T07:04:08;16.10;99.90
7030;DHT22;3556;53.500;10.176;2022-07-17T07:06:34;16.20;99.90
7030;DHT22;3556;53.500;10.176;2022-07-17T07:09:00;16.30;99.90
7030;DHT22;3556;53.500;10.176;2022-07-17T07:11:26;16.30;99.90
7030;DHT22;3556;53.500;10.176;2022-07-17T07:13:51;16.40;99.90
7030;DHT22;3556;53.500;10.176;2022-07-17T07:16:17;16.40;99.90
7030;DHT22;3556;53.500;10.176;2022-07-17T07:18:42;16.40;99.90
7030;DHT22;3556;53.500;10.176;2022-07-17T07:21:08;16.30;99.90
7030;DHT22;3556;53.500;10.176;2022-07-17T07:23:34;16.30;99.90
7030;DHT22;3556;53.500;10.176;2022-07-17T07:25:59;16.40;99.90
7030;DHT22;3556;53.500;10.176;2022-07-17T07:28:25;16.40;99.90
7030;DHT22;3556;53.500;10.176;2022-07-17T07:30:51;16.50;99.90
7030;DHT22;3556;53.500;10.176;2022-07-17T07:33:17;16.60;99.90
7030;DHT22;3556;53.500;10.176;2022-07-17T07:35:43;16.70;99.90
7030;DHT22;3556;53.500;10.176;2022-07-17T07:38:09;16.80;99.90
7030;DHT22;3556;53.500;10.176;2022-07-17T07:40:36;16.90;99.90
7030;DHT22;3556;53.500;10.176;2022-07-17T07:43:02;17.00;99.90
7030;DHT22;3556;53.500;10.176;2022-07-17T07:45:28;17.10;99.90
7030;DHT22;3556;53.500;10.176;2022-07-17T07:47:54;17.20;99.90
7030;DHT22;3556;53.500;10.176;2022-07-17T07:50:23;17.20;99.90
7030;DHT22;3556;53.500;10.176;2022-07-17T07:52:49;17.30;99.90
7030;DHT22;3556;53.500;10.176;2022-07-17T07:55:15;17.40;99.90
7030;DHT22;3556;53.500;10.176;2022-07-17T07:57:41;17.50;99.90
7030;DHT22;3556;53.500;10.176;2022-07-17T08:00:08;17.50;99.90
7030;DHT22;3556;53.500;10.176;2022-07-17T08:02:34;17.60;99.90
7030;DHT22;3556;53.500;10.176;2022-07-17T08:05:00;17.70;99.90
7030;DHT22;3556;53.500;10.176;2022-07-17T08:07:26;17.80;99.90
7030;DHT22;3556;53.500;10.176;2022-07-17T08:09:53;17.90;99.90
7030;DHT22;3556;53.500;10.176;2022-07-17T08:12:19;18.10;99.90
7030;DHT22;3556;53.500;10.176;2022-07-17T08:14:44;18.10;99.90
7030;DHT22;3556;53.500;10.176;2022-07-17T08:17:10;18.20;99.90
7030;DHT22;3556;53.500;10.176;2022-07-17T08:19:36;18.30;99.90
7030;DHT22;3556;53.500;10.176;2022-07-17T08:22:01;18.30;99.90
7030;DHT22;3556;53.500;10.176;2022-07-17T08:24:27;18.50;99.90
7030;DHT22;3556;53.500;10.176;2022-07-17T08:26:52;18.60;99.90
7030;DHT22;3556;53.500;10.176;2022-07-17T08:29:18;18.70;99.90
7030;DHT22;3556;53.500;10.176;2022-07-17T08:31:44;18.70;99.90
7030;DHT22;3556;53.500;10.176;2022-07-17T08:34:09;18.60;99.90
7030;DHT22;3556;53.500;10.176;2022-07-17T08:36:35;18.60;99.90
7030;DHT22;3556;53.500;10.176;2022-07-17T08:39:02;18.60;99.90
7030;DHT22;3556;53.500;10.176;2022-07-17T08:41:29;18.70;99.90
7030;DHT22;3556;53.500;10.176;2022-07-17T08:43:55;18.70;99.90
7030;DHT22;3556;53.500;10.176;2022-07-17T08:46:24;18.80;99.90
7030;DHT22;3556;53.500;10.176;2022-07-17T08:48:56;18.80;99.90
7030;DHT22;3556;53.500;10.176;2022-07-17T08:51:25;18.80;99.90
7030;DHT22;3556;53.500;10.176;2022-07-17T08:53:52;18.90;99.90
7030;DHT22;3556;53.500;10.176;2022-07-17T08:56:18;18.80;99.90
7030;DHT22;3556;53.500;10.176;2022-07-17T08:58:44;18.80;99.90
7030;DHT22;3556;53.500;10.176;2022-07-17T09:01:09;18.90;99.90
7030;DHT22;3556;53.500;10.176;2022-07-17T09:03:35;19.10;99.90
7030;DHT22;3556;53.500;10.176;2022-07-17T09:06:02;19.40;99.90
7030;DHT22;3556;53.500;10.176;2022-07-17T09:08:28;19.50;99.90
7030;DHT22;3556;53.500;10.176;2022-07-17T09:10:58;19.40;99.90
7030;DHT22;3556;53.500;10.176;2022-07-17T09:13:24;19.40;99.90
7030;DHT22;3556;53.500;10.176;2022-07-17T09:15:57;19.30;99.90
7030;DHT22;3556;53.500;10.176;2022-07-17T09:18:22;19.40;99.90
7030;DHT22;3556;53.500;10.176;2022-07-17T09:20:54;19.60;99.90
7030;DHT22;3556;53.500;10.176;2022-07-17T09:23:22;19.60;99.90
7030;DHT22;3556;53.500;10.176;2022-07-17T09:25:50;19.60;99.90
7030;DHT22;3556;53.500;10.176;2022-07-17T09:28:17;19.70;99.90
7030;DHT22;3556;53.500;10.176;2022-07-17T09:30:45;19.70;99.90
7030;DHT22;3556;53.500;10.176;2022-07-17T09:33:14;19.90;99.90
7030;DHT22;3556;53.500;10.176;2022-07-17T09:35:54;20.00;99.90
7030;DHT22;3556;53.500;10.176;2022-07-17T09:38:35;20.10;99.90
7030;DHT22;3556;53.500;10.176;2022-07-17T09:41:15;20.10;99.90
7030;DHT22;3556;53.500;10.176;2022-07-17T09:43:50;20.20;99.90
7030;DHT22;3556;53.500;10.176;2022-07-17T09:46:22;20.20;99.90
7030;DHT22;3556;53.500;10.176;2022-07-17T09:48:54;20.20;99.90
7030;DHT22;3556;53.500;10.176;2022-07-17T09:53:48;20.10;99.40
7030;DHT22;3556;53.500;10.176;2022-07-17T09:56:18;20.20;99.80
7030;DHT22;3556;53.500;10.176;2022-07-17T09:58:53;20.40;99.90
7030;DHT22;3556;53.500;10.176;2022-07-17T10:01:19;20.70;99.70
7030;DHT22;3556;53.500;10.176;2022-07-17T10:03:46;21.00;99.60
7030;DHT22;3556;53.500;10.176;2022-07-17T10:06:15;21.20;98.00
7030;DHT22;3556;53.500;10.176;2022-07-17T10:08:41;21.30;97.50
7030;DHT22;3556;53.500;10.176;2022-07-17T10:11:08;21.40;97.60
7030;DHT22;3556;53.500;10.176;2022-07-17T10:13:40;21.40;96.80
7030;DHT22;3556;53.500;10.176;2022-07-17T10:16:07;21.60;96.80
7030;DHT22;3556;53.500;10.176;2022-07-17T10:18:41;21.70;96.40
7030;DHT22;3556;53.500;10.176;2022-07-17T10:21:18;21.70;96.70
7030;DHT22;3556;53.500;10.176;2022-07-17T10:26:16;22.00;96.50
7030;DHT22;3556;53.500;10.176;2022-07-17T10:28:46;22.10;95.70
7030;DHT22;3556;53.500;10.176;2022-07-17T10:31:26;22.10;94.30
7030;DHT22;3556;53.500;10.176;2022-07-17T10:41:36;22.30;92.80
7030;DHT22;3556;53.500;10.176;2022-07-17T10:44:02;22.50;93.60
7030;DHT22;3556;53.500;10.176;2022-07-17T10:46:27;22.70;93.60
7030;DHT22;3556;53.500;10.176;2022-07-17T10:48:55;22.60;93.70
7030;DHT22;3556;53.500;10.176;2022-07-17T10:51:24;22.60;93.90
7030;DHT22;3556;53.500;10.176;2022-07-17T10:53:49;22.70;93.30
7030;DHT22;3556;53.500;10.176;2022-07-17T10:56:15;22.80;93.40
7030;DHT22;3556;53.500;10.176;2022-07-17T10:58:43;22.80;92.70
7030;DHT22;3556;53.500;10.176;2022-07-17T11:01:13;22.90;93.20
7030;DHT22;3556;53.500;10.176;2022-07-17T11:03:47;22.80;91.80
7030;DHT22;3556;53.500;10.176;2022-07-17T11:06:19;22.90;92.50
7030;DHT22;3556;53.500;10.176;2022-07-17T11:11:13;23.30;92.30
7030;DHT22;3556;53.500;10.176;2022-07-17T11:13:38;23.60;92.40
7030;DHT22;3556;53.500;10.176;2022-07-17T11:16:04;23.80;91.80
7030;DHT22;3556;53.500;10.176;2022-07-17T11:18:30;23.70;90.70
7030;DHT22;3556;53.500;10.176;2022-07-17T11:20:59;23.80;91.20
7030;DHT22;3556;53.500;10.176;2022-07-17T11:23:28;23.80;90.20
7030;DHT22;3556;53.500;10.176;2022-07-17T11:25:55;24.00;90.00
7030;DHT22;3556;53.500;10.176;2022-07-17T11:28:38;24.10;89.00
7030;DHT22;3556;53.500;10.176;2022-07-17T11:31:19;24.20;89.70
7030;DHT22;3556;53.500;10.176;2022-07-17T11:36:42;24.30;84.50
7030;DHT22;3556;53.500;10.176;2022-07-17T11:39:16;24.30;85.40
7030;DHT22;3556;53.500;10.176;2022-07-17T11:41:49;24.40;85.40
7030;DHT22;3556;53.500;10.176;2022-07-17T11:44:19;24.60;86.50
7030;DHT22;3556;53.500;10.176;2022-07-17T11:46:47;24.40;84.80
7030;DHT22;3556;53.500;10.176;2022-07-17T11:49:28;24.30;86.70
7030;DHT22;3556;53.500;10.176;2022-07-17T11:51:58;24.10;82.60
7030;DHT22;3556;53.500;10.176;2022-07-17T11:54:25;24.20;84.10
7030;DHT22;3556;53.500;10.176;2022-07-17T11:56:53;24.50;84.50
7030;DHT22;3556;53.500;10.176;2022-07-17T11:59:25;24.70;82.60
7030;DHT22;3556;53.500;10.176;2022-07-17T12:01:51;24.80;80.70
7030;DHT22;3556;53.500;10.176;2022-07-17T12:04:17;24.90;81.60
7030;DHT22;3556;53.500;10.176;2022-07-17T12:06:44;25.20;83.10
7030;DHT22;3556;53.500;10.176;2022-07-17T12:09:10;25.50;80.30
7030;DHT22;3556;53.500;10.176;2022-07-17T12:11:49;25.60;79.20
7030;DHT22;3556;53.500;10.176;2022-07-17T12:14:15;25.90;79.50
7030;DHT22;3556;53.500;10.176;2022-07-17T12:16:41;26.10;79.90
7030;DHT22;3556;53.500;10.176;2022-07-17T12:19:13;26.30;77.80
7030;DHT22;3556;53.500;10.176;2022-07-17T12:21:54;26.40;76.20
7030;DHT22;3556;53.500;10.176;2022-07-17T12:24:23;26.30;77.00
7030;DHT22;3556;53.500;10.176;2022-07-17T12:26:49;26.20;75.30
7030;DHT22;3556;53.500;10.176;2022-07-17T12:29:15;26.30;76.80
7030;DHT22;3556;53.500;10.176;2022-07-17T12:31:41;26.40;76.60
7030;DHT22;3556;53.500;10.176;2022-07-17T12:34:06;26.50;76.70
7030;DHT22;3556;53.500;10.176;2022-07-17T12:36:32;26.70;73.10
7030;DHT22;3556;53.500;10.176;2022-07-17T12:38:58;26.80;72.40
7030;DHT22;3556;53.500;10.176;2022-07-17T12:41:24;26.60;72.90
7030;DHT22;3556;53.500;10.176;2022-07-17T12:43:49;26.60;72.80
7030;DHT22;3556;53.500;10.176;2022-07-17T12:46:15;26.60;74.20
7030;DHT22;3556;53.500;10.176;2022-07-17T12:48:43;26.70;71.90
7030;DHT22;3556;53.500;10.176;2022-07-17T12:51:10;26.80;74.30
7030;DHT22;3556;53.500;10.176;2022-07-17T12:53:36;27.20;74.80
7030;DHT22;3556;53.500;10.176;2022-07-17T12:56:03;27.40;72.90
7030;DHT22;3556;53.500;10.176;2022-07-17T12:58:29;27.60;71.00
7030;DHT22;3556;53.500;10.176;2022-07-17T13:00:55;27.70;72.00
7030;DHT22;3556;53.500;10.176;2022-07-17T13:03:21;27.70;69.50
7030;DHT22;3556;53.500;10.176;2022-07-17T13:05:47;27.80;69.90
7030;DHT22;3556;53.500;10.176;2022-07-17T13:08:12;28.10;72.90
7030;DHT22;3556;53.500;10.176;2022-07-17T13:10:38;28.30;68.50
7030;DHT22;3556;53.500;10.176;2022-07-17T13:13:05;28.40;67.20
7030;DHT22;3556;53.500;10.176;2022-07-17T13:15:31;28.60;68.40
7030;DHT22;3556;53.500;10.176;2022-07-17T13:17:56;28.50;64.60
7030;DHT22;3556;53.500;10.176;2022-07-17T13:20:23;28.50;65.50
7030;DHT22;3556;53.500;10.176;2022-07-17T13:22:49;28.40;65.70
7030;DHT22;3556;53.500;10.176;2022-07-17T13:25:14;28.40;66.00
7030;DHT22;3556;53.500;10.176;2022-07-17T13:27:40;28.70;68.40
7030;DHT22;3556;53.500;10.176;2022-07-17T13:30:06;28.90;64.20
7030;DHT22;3556;53.500;10.176;2022-07-17T13:32:32;29.10;64.40
7030;DHT22;3556;53.500;10.176;2022-07-17T13:34:58;29.30;63.50
7030;DHT22;3556;53.500;10.176;2022-07-17T13:37:24;29.40;61.30
7030;DHT22;3556;53.500;10.176;2022-07-17T13:39:49;29.40;61.60
7030;DHT22;3556;53.500;10.176;2022-07-17T13:42:15;29.40;60.60
7030;DHT22;3556;53.500;10.176;2022-07-17T13:44:41;29.60;60.50
7030;DHT22;3556;53.500;10.176;2022-07-17T13:47:07;29.60;60.50
7030;DHT22;3556;53.500;10.176;2022-07-17T13:49:32;29.70;60.70
7030;DHT22;3556;53.500;10.176;2022-07-17T13:51:58;29.50;58.70
7030;DHT22;3556;53.500;10.176;2022-07-17T13:54:24;29.30;60.10
7030;DHT22;3556;53.500;10.176;2022-07-17T13:56:50;29.10;57.60
7030;DHT22;3556;53.500;10.176;2022-07-17T13:59:15;29.20;60.90
7030;DHT22;3556;53.500;10.176;2022-07-17T14:01:41;29.20;59.40
7030;DHT22;3556;53.500;10.176;2022-07-17T14:04:07;29.00;57.20
7030;DHT22;3556;53.500;10.176;2022-07-17T14:06:33;29.20;59.60
7030;DHT22;3556;53.500;10.176;2022-07-17T14:08:58;29.00;58.60
7030;DHT22;3556;53.500;10.176;2022-07-17T14:11:24;28.60;59.30
7030;DHT22;3556;53.500;10.176;2022-07-17T14:13:49;28.40;59.40
7030;DHT22;3556;53.500;10.176;2022-07-17T14:16:16;28.50;61.20
7030;DHT22;3556;53.500;10.176;2022-07-17T14:18:42;28.40;60.20
7030;DHT22;3556;53.500;10.176;2022-07-17T14:21:32;28.50;59.10
7030;DHT22;3556;53.500;10.176;2022-07-17T14:23:58;28.40;62.60
7030;DHT22;3556;53.500;10.176;2022-07-17T14:26:24;28.50;60.20
7030;DHT22;3556;53.500;10.176;2022-07-17T14:28:50;28.30;60.10
7030;DHT22;3556;53.500;10.176;2022-07-17T14:31:16;28.20;59.80
7030;DHT22;3556;53.500;10.176;2022-07-17T14:33:42;28.20;58.50
7030;DHT22;3556;53.500;10.176;2022-07-17T14:36:09;28.20;61.30
7030;DHT22;3556;53.500;10.176;2022-07-17T14:38:35;28.50;61.30
7030;DHT22;3556;53.500;10.176;2022-07-17T14:41:01;28.70;61.20
7030;DHT22;3556;53.500;10.176;2022-07-17T14:43:28;28.80;61.40
7030;DHT22;3556;53.500;10.176;2022-07-17T14:45:54;28.70;60.60
7030;DHT22;3556;53.500;10.176;2022-07-17T14:48:19;28.70;61.20
7030;DHT22;3556;53.500;10.176;2022-07-17T14:50:45;28.80;59.80
7030;DHT22;3556;53.500;10.176;2022-07-17T14:53:11;28.70;61.20
7030;DHT22;3556;53.500;10.176;2022-07-17T14:55:36;28.70;61.10
7030;DHT22;3556;53.500;10.176;2022-07-17T14:58:02;28.80;60.70
7030;DHT22;3556;53.500;10.176;2022-07-17T15:00:28;28.90;62.60
7030;DHT22;3556;53.500;10.176;2022-07-17T15:02:53;28.70;60.40
7030;DHT22;3556;53.500;10.176;2022-07-17T15:05:19;28.50;58.90
7030;DHT22;3556;53.500;10.176;2022-07-17T15:07:44;27.90;60.00
7030;DHT22;3556;53.500;10.176;2022-07-17T15:10:10;27.70;62.10
7030;DHT22;3556;53.500;10.176;2022-07-17T15:12:36;27.60;61.70
7030;DHT22;3556;53.500;10.176;2022-07-17T15:15:01;27.50;64.00
7030;DHT22;3556;53.500;10.176;2022-07-17T15:17:27;27.30;61.00
7030;DHT22;3556;53.500;10.176;2022-07-17T15:19:53;27.20;64.40
7030;DHT22;3556;53.500;10.176;2022-07-17T15:22:18;26.70;63.60
7030;DHT22;3556;53.500;10.176;2022-07-17T15:24:44;26.40;64.30
7030;DHT22;3556;53.500;10.176;2022-07-17T15:27:10;26.20;66.70
7030;DHT22;3556;53.500;10.176;2022-07-17T15:29:36;26.20;66.20
7030;DHT22;3556;53.500;10.176;2022-07-17T15:32:03;26.40;66.80
7030;DHT22;3556;53.500;10.176;2022-07-17T15:34:28;26.60;66.80
7030;DHT22;3556;53.500;10.176;2022-07-17T15:36:54;26.50;64.40
7030;DHT22;3556;53.500;10.176;2022-07-17T15:39:20;26.40;65.00
7030;DHT22;3556;53.500;10.176;2022-07-17T15:41:46;26.30;66.00
7030;DHT22;3556;53.500;10.176;2022-07-17T15:44:12;26.40;69.90
7030;DHT22;3556;53.500;10.176;2022-07-17T15:46:38;26.50;67.80
7030;DHT22;3556;53.500;10.176;2022-07-17T15:49:04;26.50;65.30
7030;DHT22;3556;53.500;10.176;2022-07-17T15:51:30;26.60;67.80
7030;DHT22;3556;53.500;10.176;2022-07-17T15:53:56;26.50;66.50
7030;DHT22;3556;53.500;10.176;2022-07-17T15:56:23;26.50;67.80
7030;DHT22;3556;53.500;10.176;2022-07-17T15:58:49;26.50;66.00